Date,TemperatureHighF,TemperatureAvgF,TemperatureLowF,DewpointHighF,DewpointAvgF,DewpointLowF,HumidityHigh,HumidityAvg,HumidityLow,PressureMaxIn,PressureMinIn,WindSpeedMaxMPH,WindSpeedAvgMPH,GustSpeedMaxMPH,PrecipitationSumIn
2013-10-1,79.8,69.2,59.6,67.0,63.1,57.0,92,82,62,30.20,30.09,9,2,0,0.00
2013-10-2,81.2,71.0,61.3,67.0,63.3,59.0,92,78,54,30.21,30.10,5,0,0,0.00
2013-10-3,80.7,72.4,65.2,66.0,63.9,61.0,91,76,55,30.17,30.08,9,2,0,0.00
2013-10-4,83.2,72.5,63.4,69.0,65.4,61.0,92,79,59,30.19,30.11,9,1,0,0.00
2013-10-5,83.9,73.7,63.8,68.0,65.6,61.0,92,77,57,30.15,30.01,9,3,0,0.00
2013-10-6,78.7,70.3,56.4,69.0,65.3,54.0,92,84,71,30.00,29.85,18,5,0,0.29
2013-10-7,68.2,59.3,53.4,54.0,51.9,50.0,92,77,54,30.10,29.94,11,4,0,0.01
2013-10-8,74.6,60.6,51.8,60.0,51.9,48.0,86,74,57,30.14,30.06,14,6,0,0.00
2013-10-9,75.1,68.8,60.6,59.0,56.2,50.0,89,66,52,30.23,30.14,9,2,0,0.00
2013-10-10,77.6,66.2,56.1,62.0,58.5,54.0,92,78,53,30.20,30.07,7,1,0,0.00
2013-10-11,76.7,65.6,54.6,60.0,57.2,52.0,91,76,51,30.14,30.05,9,1,0,0.00
2013-10-12,78.0,65.6,53.4,62.0,57.4,51.0,91,77,53,30.17,30.07,9,1,0,0.00
2013-10-13,78.4,67.8,58.8,61.0,57.7,56.0,91,72,46,30.26,30.17,11,2,0,0.00
2013-10-14,77.0,66.9,57.1,65.0,59.8,55.0,91,79,60,30.27,30.14,11,2,0,0.00
2013-10-15,68.2,63.6,59.0,61.0,59.0,56.0,91,85,75,30.18,30.08,14,4,0,0.00
2013-10-16,70.4,64.3,59.5,64.0,60.7,57.0,91,88,79,30.11,29.99,10,3,0,0.04
2013-10-17,66.4,61.6,53.4,64.0,56.9,-99.9,92,89,89,30.05,29.94,8,-18,0,0.03
2013-10-18,65.0,56.4,49.0,53.0,50.4,47.0,93,81,57,30.14,30.02,10,2,0,0.00
2013-10-19,67.1,57.2,47.9,56.0,52.2,46.0,92,84,65,30.09,29.99,12,2,0,0.00
2013-10-20,63.6,50.9,37.6,46.0,40.5,32.0,93,72,31,30.16,30.09,8,1,0,0.00
2013-10-21,69.6,54.2,39.1,52.0,44.8,37.0,92,74,39,30.19,30.08,7,1,0,0.00
2013-10-22,66.0,58.7,51.7,55.0,52.7,50.0,92,81,62,30.09,29.93,9,1,0,0.00
2013-10-23,55.6,49.7,41.2,49.0,41.5,36.0,92,75,49,30.18,29.94,16,4,0,0.00
2013-10-24,60.8,48.6,37.0,44.0,40.3,35.0,92,75,46,30.35,30.18,8,2,0,0.00
2013-10-25,51.6,42.3,33.8,37.0,30.7,26.0,83,65,40,30.52,30.35,12,3,0,0.00
2013-10-26,60.4,45.6,30.1,38.0,32.4,27.0,90,64,31,30.41,30.23,9,2,0,0.00
2013-10-27,64.9,56.3,46.9,54.0,47.7,38.0,91,73,59,30.22,30.15,7,2,0,0.00
2013-10-28,64.0,57.7,54.4,58.0,53.2,-99.9,92,87,78,30.31,30.18,8,-9,0,0.01
2013-10-29,73.6,61.3,53.3,62.0,53.9,-99.9,92,81,63,30.36,30.26,9,-9,0,0.00
2013-10-30,75.5,66.0,58.2,62.0,58.0,56.0,92,77,53,30.33,30.14,9,2,0,0.00
2013-10-31,72.0,66.4,61.2,66.0,61.2,55.0,91,83,77,30.15,29.77,23,10,0,0.12